Flight Track Log - Related Links

Times and Time Zones

All times are in EDT time to prevent confusion due to time zone crossing. See the N498QS flight status page for this flight to view local times or setup timezone preferences in your user account.

Time Position Orientation Groundspeed Altitude Reporting Facility
EDT Latitude Longitude Course Direction KTS MPH feet Rate Location/Type
Fri 06:15:13 PM 30.2397 -97.6431 90° East 206 237 3,700  Level Houston Center
Fri 06:16:15 PM 30.2933 -97.5967 37° Northeast 247 284 5,000 581 Climbing Houston Center
Fri 06:17:17 PM 30.3278 -97.5064 66° East 265 305 4,900 1,887 Descending Houston Center
Fri 06:18:19 PM 30.3567 -97.4231 68° East 273 314 8,900 3,168 Climbing Houston Center
Fri 06:19:22 PM 30.3556 -97.3253 91° East 297 342 11,500 2,256 Climbing Houston Center
Fri 06:20:00 PM 30.3500 -97.0676 90° East  Level FlightAware Approximate
Fri 06:20:24 PM 30.3528 -97.2000 91° East 374 430 13,600  Level Houston Center
Fri 06:21:26 PM 30.3517 -97.0706 91° East 397 457 16,800 2,710 Climbing Houston Center
Fri 06:22:28 PM 30.3433 -96.9347 94° East 416 479 19,200 2,565 Climbing Houston Center
Fri 06:23:30 PM 30.3331 -96.7647 94° East 446 513 22,100 2,323 Climbing Houston Center
Fri 06:24:32 PM 30.3236 -96.6097 94° East 473 544 24,000 1,790 Climbing Houston Center
Fri 06:25:34 PM 30.3125 -96.4478 95° East 498 573 25,800 1,645 Climbing Houston Center
Fri 06:26:36 PM 30.3028 -96.2756 94° East 526 605 27,400 1,645 Climbing Houston Center
Fri 06:27:38 PM 30.3117 -96.0961 87° East 555 639 29,200 1,872 Climbing Houston Center
Fri 06:28:41 PM 30.3728 -95.9347 66° East 565 650 31,300 1,824 Climbing Houston Center
Fri 06:29:43 PM 30.4669 -95.7883 53° Northeast 563 648 33,000 823 Climbing Houston Center
Fri 06:30:45 PM 30.5817 -95.6147 52° Northeast 563 648 33,000  Level Houston Center
Fri 06:31:47 PM 30.6792 -95.4664 53° Northeast 570 656 33,000 726 Level Houston Center
Fri 06:32:49 PM 30.7711 -95.3197 54° Northeast 565 650 34,500 968 Climbing Houston Center
Fri 06:33:51 PM 30.8669 -95.1747 52° Northeast 566 651 35,000 290 Climbing Houston Center
Fri 06:34:53 PM 30.9619 -95.0281 53° Northeast 569 655 35,100 1,016 Climbing Houston Center
Fri 06:35:55 PM 31.0756 -94.8528 53° Northeast 568 654 37,100 1,548 Climbing Houston Center
Fri 06:36:57 PM 31.1833 -94.7108 48° Northeast 592 681 38,300 1,548 Climbing Houston Center
Fri 06:37:59 PM 31.2931 -94.6253 34° Northeast 529 609 40,300 1,286 Climbing Houston Center
Fri 06:39:03 PM 31.4453 -94.5206 30° Northeast 530 610 41,000 339 Climbing Fort Worth Center
Fri 06:40:03 PM 31.5706 -94.4339 31° Northeast 525 604 41,000  Level Fort Worth Center
Fri 06:41:03 PM 31.6981 -94.3467 30° Northeast 525 604 41,000  Level Fort Worth Center
Fri 06:42:03 PM 31.8231 -94.2569 31° Northeast 525 604 41,000  Level Fort Worth Center
Fri 06:43:03 PM 31.9236 -94.1875 30° Northeast 525 604 41,000  Level Fort Worth Center
Fri 06:44:03 PM 32.0753 -94.0817 31° Northeast 525 604 41,000  Level Fort Worth Center
Fri 06:45:03 PM 32.1736 -94.0117 31° Northeast 520 598 41,000  Level Fort Worth Center
Fri 06:46:03 PM 32.3086 -93.9083 33° Northeast 520 598 41,000  Level Fort Worth Center
Fri 06:47:03 PM 32.4336 -93.8197 31° Northeast 520 598 41,000  Level Fort Worth Center
Fri 06:48:03 PM 32.5564 -93.7336 31° Northeast 520 598 41,000  Level Fort Worth Center
Fri 06:49:03 PM 32.6811 -93.6472 30° Northeast 514 592 41,000  Level Fort Worth Center
Fri 06:50:03 PM 32.8036 -93.5578 32° Northeast 514 592 41,000  Level Fort Worth Center
Fri 06:51:03 PM 32.9281 -93.4708 30° Northeast 514 592 41,000  Level Fort Worth Center
Fri 06:52:03 PM 33.0547 -93.3786 31° Northeast 520 598 41,000  Level Fort Worth Center
Fri 06:53:03 PM 33.1792 -93.2886 31° Northeast 520 598 41,000  Level Fort Worth Center
Fri 06:54:41 PM 33.3947 -93.1339 31° Northeast 517 595 41,000  Level Memphis Center
Fri 06:55:41 PM 33.5200 -93.0408 32° Northeast 517 595 41,000  Level Memphis Center
Fri 06:56:41 PM 33.6450 -92.9497 31° Northeast 522 601 41,000  Level Memphis Center
Fri 06:57:41 PM 33.7722 -92.8586 31° Northeast 522 601 41,000  Level Memphis Center
Fri 06:58:41 PM 33.8950 -92.7669 32° Northeast 522 601 41,000  Level Memphis Center
Fri 06:59:41 PM 34.0219 -92.6753 31° Northeast 522 601 41,000  Level Memphis Center
Fri 07:00:41 PM 34.1425 -92.5781 34° Northeast 522 601 41,000  Level Memphis Center
Fri 07:01:41 PM 34.2672 -92.4858 31° Northeast 522 601 41,000  Level Memphis Center
Fri 07:02:41 PM 34.3942 -92.3908 32° Northeast 528 608 41,000  Level Memphis Center
Fri 07:03:41 PM 34.5144 -92.3006 32° Northeast 528 608 41,000  Level Memphis Center
Fri 07:04:41 PM 34.6306 -92.2122 32° Northeast 539 620 41,000  Level Memphis Center
Fri 07:05:41 PM 34.7428 -92.0933 41° Northeast 534 615 41,000  Level Memphis Center
Fri 07:06:41 PM 34.8489 -91.9589 46° Northeast 534 615 41,000  Level Memphis Center
Fri 07:07:41 PM 34.9508 -91.8292 46° Northeast 534 615 41,000  Level Memphis Center
Fri 07:08:41 PM 35.0544 -91.6964 46° Northeast 539 620 41,000  Level Memphis Center
Fri 07:09:41 PM 35.1581 -91.5608 47° Northeast 539 620 41,000  Level Memphis Center
Fri 07:10:41 PM 35.2636 -91.4278 46° Northeast 544 626 41,000  Level Memphis Center
Fri 07:11:41 PM 35.3689 -91.2917 46° Northeast 544 626 41,000  Level Memphis Center
Fri 07:12:41 PM 35.4825 -91.1450 46° Northeast 544 626 41,000  Level Memphis Center
Fri 07:13:41 PM 35.5856 -91.0081 47° Northeast 544 626 41,000  Level Memphis Center
Fri 07:14:41 PM 35.6925 -90.8658 47° Northeast 549 632 41,000  Level Memphis Center
Fri 07:15:41 PM 35.7806 -90.7433 48° Northeast 540 621 41,000  Level Memphis Center
Fri 07:16:41 PM 35.8853 -90.6056 47° Northeast 540 621 41,000  Level Memphis Center
Fri 07:17:41 PM 35.9897 -90.4725 46° Northeast 545 627 41,000  Level Memphis Center
Fri 07:18:41 PM 36.0939 -90.3314 48° Northeast 545 627 41,000  Level Memphis Center
Fri 07:19:41 PM 36.2064 -90.1769 48° Northeast 545 627 41,000  Level Memphis Center
Fri 07:20:41 PM 36.3125 -90.0375 47° Northeast 545 627 41,000  Level Memphis Center
Fri 07:21:41 PM 36.4142 -89.9006 47° Northeast 545 627 41,000  Level Memphis Center
Fri 07:22:41 PM 36.5197 -89.7581 47° Northeast 545 627 41,000  Level Memphis Center
Fri 07:23:41 PM 36.6253 -89.6175 47° Northeast 545 627 41,000  Level Memphis Center
Fri 07:24:41 PM 36.7286 -89.4742 48° Northeast 545 627 41,000  Level Memphis Center
Fri 07:25:41 PM 36.8297 -89.3306 49° Northeast 545 627 41,000 -750 Level Memphis Center
Fri 07:26:41 PM 36.9347 -89.1864 48° Northeast 545 627 39,500 -1,800 Descending Memphis Center
Fri 07:27:41 PM 37.0353 -89.0444 48° Northeast 545 627 37,400 -2,350 Descending Memphis Center
Fri 07:28:41 PM 37.1378 -88.8997 48° Northeast 545 627 34,800 -2,550 Descending Memphis Center
Fri 07:29:41 PM 37.2425 -88.7544 48° Northeast 545 627 32,300 -1,900 Descending Memphis Center
Fri 07:30:41 PM 37.3322 -88.6300 48° Northeast 540 621 31,000 -2,094 Descending Memphis Center
Fri 07:33:13 PM 37.5694 -88.2825 49° Northeast 520 598 24,900 -2,535 Descending Indianapolis Center
Fri 07:34:14 PM 37.6619 -88.1500 49° Northeast 496 571 22,000 -3,073 Descending Indianapolis Center
Fri 07:35:16 PM 37.7656 -88.0011 49° Northeast 479 551 18,600 -2,952 Descending Indianapolis Center
Fri 07:36:18 PM 37.8461 -87.8825 49° Northeast 455 524 15,900 -2,683 Descending Indianapolis Center
Fri 07:37:19 PM 37.8989 -87.7669 60° Northeast 405 466 13,100 -2,732 Descending Indianapolis Center
Fri 07:38:21 PM 37.8772 -87.6478 103° East 355 409 10,300 -2,710 Descending Indianapolis Center
Fri 07:39:23 PM 37.8517 -87.5378 106° East 335 386 7,500 -2,488 Descending Indianapolis Center
Fri 07:40:24 PM 37.8311 -87.4344 104° East 314 361 5,200 -1,854 Descending Indianapolis Center
Fri 07:41:26 PM 37.8408 -87.3472 82° East 271 312 3,700 -1,317 Descending Indianapolis Center
Fri 07:42:27 PM 37.8408 -87.2675 90° East 246 283 2,500 -829 Descending Indianapolis Center
Fri 07:43:29 PM 37.8272 -87.1906 103° East 206 237 2,000 -532 Descending Indianapolis Center
Fri 07:44:31 PM 37.7917 -87.1689 154° Southeast 163 188 1,400 -537 Descending Indianapolis Center
Fri 07:45:32 PM 37.7578 -87.1686 180° South 150 173 900 -492 Descending Indianapolis Center

Login

Don't have an account? Register now (free) for customized features, flight alerts, and more!